createdAt,value
2022-12-18T00:00:08.990Z,52.00
2022-12-18T00:02:41.480Z,48.00
2022-12-18T00:05:09.720Z,51.25
2022-12-18T00:07:37.123Z,54.75
2022-12-18T00:10:05.990Z,58.25
2022-12-18T00:12:32.793Z,54.25
2022-12-18T00:14:59.682Z,52.75
2022-12-18T00:17:27.876Z,53.50
2022-12-18T00:19:55.061Z,47.50
2022-12-18T00:22:22.102Z,47.00
2022-12-18T00:24:48.935Z,44.25
2022-12-18T00:27:15.757Z,47.75
2022-12-18T00:29:42.846Z,51.00
2022-12-18T00:32:09.613Z,55.25
2022-12-18T00:34:38.126Z,49.75
2022-12-18T00:37:05.338Z,47.25
2022-12-18T00:39:32.167Z,50.00
2022-12-18T00:41:59.890Z,49.25
2022-12-18T00:44:26.810Z,49.25
2022-12-18T00:46:53.958Z,51.75
2022-12-18T00:49:21.662Z,53.25
2022-12-18T00:51:49.950Z,50.75
2022-12-18T00:54:17.700Z,49.75
2022-12-18T00:56:49.353Z,53.75
2022-12-18T00:59:18.638Z,47.00
2022-12-18T01:01:46.716Z,48.50
2022-12-18T01:04:14.764Z,48.25
2022-12-18T01:06:43.324Z,44.75
2022-12-18T01:09:12.981Z,42.75
2022-12-18T01:11:40.436Z,51.00
2022-12-18T01:14:07.374Z,52.50
2022-12-18T01:16:34.591Z,41.75
2022-12-18T01:19:01.387Z,43.00
2022-12-18T01:21:28.742Z,49.75
2022-12-18T01:23:57.744Z,48.50
2022-12-18T01:26:26.859Z,46.25
2022-12-18T01:28:55.387Z,50.00
2022-12-18T01:31:27.671Z,49.50
2022-12-18T01:33:56.238Z,51.25
2022-12-18T01:36:26.189Z,52.25
2022-12-18T01:38:54.245Z,47.25
2022-12-18T01:41:25.323Z,48.25
2022-12-18T01:43:57.041Z,50.00
2022-12-18T01:46:28.330Z,49.00
2022-12-18T01:49:00.845Z,46.50
2022-12-18T01:51:29.393Z,45.75
2022-12-18T01:53:58.280Z,45.00
2022-12-18T01:56:25.201Z,43.50
2022-12-18T01:59:03.124Z,48.50
2022-12-18T02:01:33.862Z,46.00
2022-12-18T02:04:21.811Z,44.25
2022-12-18T02:06:58.180Z,44.50
2022-12-18T02:09:36.739Z,46.50
2022-12-18T02:12:14.536Z,47.00
2022-12-18T02:14:52.255Z,47.75
2022-12-18T02:17:23.224Z,46.75
2022-12-18T02:20:13.937Z,45.75
2022-12-18T02:23:01.766Z,46.75
2022-12-18T02:26:01.254Z,48.00
2022-12-18T02:28:37.145Z,45.00
2022-12-18T02:31:15.304Z,45.25
2022-12-18T02:33:45.710Z,44.50
2022-12-18T02:36:17.177Z,46.50
2022-12-18T02:38:47.648Z,44.50
2022-12-18T02:41:19.697Z,45.75
2022-12-18T02:43:57.918Z,50.25
2022-12-18T02:46:33.180Z,43.50
2022-12-18T02:49:16.996Z,50.25
2022-12-18T02:51:56.605Z,51.00
2022-12-18T02:54:46.053Z,54.75
2022-12-18T02:57:24.989Z,48.75
2022-12-18T03:00:02.551Z,56.25
2022-12-18T03:02:40.496Z,52.25
2022-12-18T03:05:17.310Z,56.00
2022-12-18T03:07:56.229Z,48.75
2022-12-18T03:10:30.770Z,47.00
2022-12-18T03:13:09.506Z,48.00
2022-12-18T03:15:43.378Z,47.50
2022-12-18T03:18:20.678Z,43.50
2022-12-18T03:20:52.851Z,46.50
2022-12-18T03:23:29.307Z,44.50
2022-12-18T03:26:07.690Z,45.25
2022-12-18T03:28:48.213Z,42.25
2022-12-18T03:31:17.356Z,47.00
2022-12-18T03:33:52.977Z,47.00
2022-12-18T03:36:26.045Z,43.50
2022-12-18T03:38:53.689Z,21.75
2022-12-18T03:41:33.592Z,40.50
2022-12-18T03:44:30.926Z,31.00
2022-12-18T03:47:11.019Z,39.00
2022-12-18T03:49:48.833Z,41.00
2022-12-18T03:52:28.669Z,43.50
2022-12-18T03:55:01.028Z,41.50
2022-12-18T03:57:33.379Z,42.00
2022-12-18T04:00:12.538Z,36.50
2022-12-18T04:02:57.975Z,38.25
2022-12-18T04:05:38.180Z,38.50
2022-12-18T04:08:06.477Z,36.50
2022-12-18T04:10:38.064Z,39.75
2022-12-18T04:13:05.435Z,39.25
2022-12-18T04:15:37.720Z,37.75
2022-12-18T04:18:08.752Z,35.00
2022-12-18T04:20:42.049Z,37.25
2022-12-18T04:23:09.410Z,40.25
2022-12-18T04:25:38.468Z,36.75
2022-12-18T04:28:09.649Z,37.75
2022-12-18T04:30:39.827Z,38.50
2022-12-18T04:33:13.078Z,36.75
2022-12-18T04:35:40.760Z,34.75
2022-12-18T04:38:09.193Z,36.75
2022-12-18T04:40:36.613Z,37.75
2022-12-18T04:43:06.634Z,37.50
2022-12-18T04:45:34.448Z,37.25
2022-12-18T04:48:03.491Z,36.75
2022-12-18T04:50:31.204Z,36.50
2022-12-18T04:52:58.504Z,36.50
2022-12-18T04:55:25.433Z,35.25
2022-12-18T04:57:52.423Z,36.75
2022-12-18T05:00:19.852Z,36.75
2022-12-18T05:02:46.959Z,35.75
2022-12-18T05:05:15.432Z,37.25
2022-12-18T05:07:42.249Z,35.75
2022-12-18T05:10:10.434Z,36.75
2022-12-18T05:12:37.333Z,37.50
2022-12-18T05:15:05.531Z,37.25
2022-12-18T05:17:32.670Z,36.00
2022-12-18T05:19:59.409Z,37.50
2022-12-18T05:22:27.763Z,35.25
2022-12-18T05:24:54.621Z,35.50
2022-12-18T05:27:21.652Z,36.75
2022-12-18T05:29:48.412Z,36.00
2022-12-18T05:32:16.195Z,35.50
2022-12-18T05:34:42.968Z,37.25
2022-12-18T05:37:10.021Z,37.25
2022-12-18T05:39:38.078Z,36.25
2022-12-18T05:42:05.184Z,35.75
2022-12-18T05:44:33.168Z,38.50
2022-12-18T05:46:59.928Z,39.25
2022-12-18T05:49:27.522Z,35.75
2022-12-18T05:51:54.327Z,41.75
2022-12-18T05:54:21.226Z,38.25
2022-12-18T05:56:49.523Z,36.50
2022-12-18T05:59:16.380Z,39.75
2022-12-18T06:01:43.304Z,37.75
2022-12-18T06:04:10.135Z,36.25
2022-12-18T06:06:37.060Z,39.50
2022-12-18T06:09:04.667Z,36.75
2022-12-18T06:11:31.888Z,35.25
2022-12-18T06:14:00.833Z,41.00
2022-12-18T06:16:29.238Z,40.00
2022-12-18T06:18:57.858Z,42.00
2022-12-18T06:21:24.749Z,40.75
2022-12-18T06:23:51.767Z,34.25
2022-12-18T06:26:21.079Z,36.00
2022-12-18T06:28:51.530Z,40.50
2022-12-18T06:31:19.651Z,38.25
2022-12-18T06:33:46.694Z,35.75
2022-12-18T06:36:14.537Z,37.75
2022-12-18T06:38:43.898Z,27.75
2022-12-18T06:41:14.012Z,37.75
2022-12-18T06:43:41.226Z,37.75
2022-12-18T06:46:10.348Z,39.00
2022-12-18T06:48:39.049Z,43.25
2022-12-18T06:51:06.131Z,39.75
2022-12-18T06:53:34.634Z,41.25
2022-12-18T06:56:07.861Z,48.25
2022-12-18T06:58:36.914Z,50.75
2022-12-18T07:01:07.137Z,41.00
2022-12-18T07:03:34.091Z,42.50
2022-12-18T07:06:03.016Z,44.25
2022-12-18T07:08:30.287Z,42.25
2022-12-18T07:10:57.248Z,42.25
2022-12-18T07:13:24.391Z,39.25
2022-12-18T07:15:51.473Z,42.50
2022-12-18T07:18:18.281Z,40.25
2022-12-18T07:20:45.026Z,40.50
2022-12-18T07:23:14.469Z,34.25
2022-12-18T07:25:41.357Z,42.25
2022-12-18T07:28:10.604Z,52.75
2022-12-18T07:30:41.363Z,47.00
2022-12-18T07:33:08.901Z,39.50
2022-12-18T07:35:35.598Z,37.75
2022-12-18T07:38:02.518Z,35.00
2022-12-18T07:40:31.006Z,35.00
2022-12-18T07:42:57.910Z,34.75
2022-12-18T07:45:24.968Z,42.50
2022-12-18T07:47:52.244Z,38.75
2022-12-18T07:50:19.270Z,38.50
2022-12-18T07:52:46.245Z,39.00
2022-12-18T07:55:13.012Z,37.25
2022-12-18T07:57:50.431Z,25.00
2022-12-18T08:00:18.876Z,38.50
2022-12-18T08:02:45.838Z,36.50
2022-12-18T08:05:13.058Z,37.00
2022-12-18T08:07:40.321Z,37.00
2022-12-18T08:10:08.689Z,38.75
2022-12-18T08:12:35.942Z,36.25
2022-12-18T08:15:05.005Z,37.00
2022-12-18T08:17:33.043Z,34.50
2022-12-18T08:19:59.800Z,35.00
2022-12-18T08:22:26.893Z,37.25
2022-12-18T08:24:53.994Z,45.50
2022-12-18T08:27:28.771Z,38.50
2022-12-18T08:29:56.417Z,38.25
2022-12-18T08:32:25.439Z,38.25
2022-12-18T08:34:52.356Z,38.00
2022-12-18T08:37:19.303Z,36.00
2022-12-18T08:39:46.125Z,35.00
2022-12-18T08:42:13.170Z,38.75
2022-12-18T08:44:40.164Z,35.75
2022-12-18T08:47:08.062Z,33.75
2022-12-18T08:49:36.617Z,32.00
2022-12-18T08:52:04.334Z,32.00
2022-12-18T08:54:31.261Z,33.67
2022-12-18T08:56:58.083Z,34.67
2022-12-18T08:59:24.891Z,33.67
2022-12-18T09:01:54.259Z,34.00
2022-12-18T09:04:21.172Z,34.00
2022-12-18T09:06:50.516Z,35.67
2022-12-18T09:09:17.634Z,36.00
2022-12-18T09:11:44.461Z,34.33
2022-12-18T09:14:11.566Z,33.00
2022-12-18T09:16:40.103Z,33.67
2022-12-18T09:19:07.478Z,34.33
2022-12-18T09:21:37.101Z,33.67
2022-12-18T09:24:08.011Z,32.67
2022-12-18T09:26:36.598Z,31.33
2022-12-18T09:29:04.015Z,35.67
2022-12-18T09:31:31.039Z,34.00
2022-12-18T09:33:58.231Z,34.33
2022-12-18T09:36:25.123Z,34.33
2022-12-18T09:38:52.166Z,35.00
2022-12-18T09:41:41.700Z,35.33
2022-12-18T09:44:21.282Z,35.00
2022-12-18T09:47:01.461Z,33.00
2022-12-18T09:49:34.195Z,36.75
2022-12-18T09:52:09.475Z,36.00
2022-12-18T09:54:41.302Z,39.00
2022-12-18T09:57:16.051Z,35.00
2022-12-18T09:59:47.458Z,35.00
2022-12-18T10:02:18.142Z,33.00
2022-12-18T10:04:56.064Z,32.00
2022-12-18T10:07:41.257Z,31.00
2022-12-18T10:10:20.673Z,31.50
2022-12-18T10:13:04.791Z,31.25
2022-12-18T10:15:40.980Z,26.25
2022-12-18T10:18:30.283Z,30.75
2022-12-18T10:21:07.873Z,29.33
2022-12-18T10:23:52.741Z,32.00
2022-12-18T10:26:19.809Z,30.00
2022-12-18T10:28:51.992Z,32.00
2022-12-18T10:31:24.890Z,32.33
2022-12-18T10:33:54.047Z,30.00
2022-12-18T10:36:21.842Z,31.00
2022-12-18T10:38:50.643Z,33.33
2022-12-18T10:41:29.360Z,29.67
2022-12-18T10:46:56.383Z,27.67
2022-12-18T10:49:27.813Z,29.00
2022-12-18T10:52:13.584Z,27.00
2022-12-18T10:54:41.324Z,29.00
2022-12-18T10:57:35.208Z,29.67
2022-12-18T11:00:26.253Z,30.00
2022-12-18T11:02:55.295Z,24.00
2022-12-18T11:05:30.072Z,29.00
2022-12-18T11:07:58.413Z,28.00
2022-12-18T11:10:32.388Z,24.25
2022-12-18T11:13:13.363Z,25.50
2022-12-18T11:15:42.432Z,26.50
2022-12-18T11:18:21.196Z,23.25
2022-12-18T11:20:58.480Z,22.50
2022-12-18T11:23:26.944Z,23.00
2022-12-18T11:25:58.606Z,22.67
2022-12-18T11:28:47.301Z,16.33
2022-12-18T11:31:25.521Z,25.00
2022-12-18T11:34:27.927Z,15.33
2022-12-18T11:36:53.358Z,23.67
2022-12-18T11:39:32.487Z,22.00
2022-12-18T11:42:13.320Z,17.33
2022-12-18T11:44:49.430Z,20.67
2022-12-18T11:47:39.766Z,20.00
2022-12-18T11:50:22.505Z,21.33
2022-12-18T11:52:55.643Z,2.33
2022-12-18T11:55:40.757Z,24.67
2022-12-18T11:58:31.561Z,21.67
2022-12-18T12:01:16.406Z,5.00
2022-12-18T12:04:20.458Z,25.33
2022-12-18T12:07:05.699Z,24.00
2022-12-18T12:09:47.244Z,21.67
2022-12-18T12:12:37.566Z,24.00
2022-12-18T12:15:18.195Z,24.67
2022-12-18T12:17:57.968Z,22.00
2022-12-18T12:20:46.846Z,22.00
2022-12-18T12:23:31.157Z,22.33
2022-12-18T12:26:05.224Z,25.00
2022-12-18T12:28:57.202Z,24.00
2022-12-18T12:31:46.526Z,22.00
2022-12-18T12:34:22.904Z,23.33
2022-12-18T12:37:11.883Z,22.00
2022-12-18T12:39:45.295Z,22.00
2022-12-18T12:42:32.036Z,23.00
2022-12-18T12:45:06.686Z,22.00
2022-12-18T12:47:43.177Z,23.33
2022-12-18T12:50:19.942Z,24.00
2022-12-18T12:52:55.388Z,21.67
2022-12-18T12:55:27.664Z,19.00
2022-12-18T12:58:09.279Z,22.00
2022-12-18T13:00:48.906Z,23.67
2022-12-18T13:03:40.757Z,10.67
2022-12-18T13:06:18.311Z,19.67
2022-12-18T13:09:00.745Z,22.00
2022-12-18T13:11:44.701Z,23.00
2022-12-18T13:14:24.690Z,22.00
2022-12-18T13:16:52.572Z,22.00
2022-12-18T13:19:24.697Z,22.00
2022-12-18T13:21:55.855Z,21.67
2022-12-18T13:24:28.785Z,22.67
2022-12-18T13:26:57.638Z,19.00
2022-12-18T13:29:43.746Z,21.67
2022-12-18T13:32:23.980Z,19.00
2022-12-18T13:35:40.014Z,21.33
2022-12-18T13:38:24.005Z,24.00
2022-12-18T13:40:57.235Z,21.67
2022-12-18T13:43:33.272Z,22.00
2022-12-18T13:46:04.295Z,23.00
2022-12-18T13:48:37.141Z,21.00
2022-12-18T13:51:08.382Z,21.33
2022-12-18T13:53:44.889Z,20.67
2022-12-18T13:56:17.506Z,22.67
2022-12-18T13:58:46.352Z,17.33
2022-12-18T14:01:23.844Z,23.33
2022-12-18T14:03:51.241Z,23.00
2022-12-18T14:06:18.510Z,21.00
2022-12-18T14:08:47.263Z,24.00
2022-12-18T14:11:23.890Z,20.00
2022-12-18T14:13:54.764Z,20.33
2022-12-18T14:16:23.044Z,23.00
2022-12-18T14:18:55.196Z,21.00
2022-12-18T14:21:28.732Z,21.67
2022-12-18T14:24:13.067Z,22.67
2022-12-18T14:26:40.260Z,17.00
2022-12-18T14:29:25.177Z,19.67
2022-12-18T14:32:17.569Z,21.33
2022-12-18T14:34:47.143Z,18.00
2022-12-18T14:37:16.316Z,23.00
2022-12-18T14:39:55.104Z,20.67
2022-12-18T14:42:22.073Z,22.00
2022-12-18T14:45:13.072Z,22.33
2022-12-18T14:47:37.613Z,22.67
2022-12-18T14:50:14.415Z,18.67
2022-12-18T14:52:41.504Z,29.00
2022-12-18T14:55:18.406Z,25.67
2022-12-18T14:57:49.569Z,23.00
2022-12-18T15:00:22.832Z,26.00
2022-12-18T15:02:55.939Z,20.67
2022-12-18T15:05:28.970Z,22.00
2022-12-18T15:08:00.491Z,20.67
2022-12-18T15:10:30.493Z,24.25
2022-12-18T15:13:17.501Z,27.50
2022-12-18T15:15:49.856Z,28.50
2022-12-18T15:18:20.436Z,24.50
2022-12-18T15:20:51.177Z,26.75
2022-12-18T15:23:23.125Z,23.25
2022-12-18T15:25:58.801Z,22.75
2022-12-18T15:28:32.144Z,26.50
2022-12-18T15:31:29.852Z,27.75
2022-12-18T15:34:12.583Z,22.67
2022-12-18T15:36:39.995Z,28.50
2022-12-18T15:39:07.088Z,22.67
2022-12-18T15:41:36.686Z,24.50
2022-12-18T15:44:22.589Z,19.75
2022-12-18T15:46:50.680Z,23.50
2022-12-18T15:49:17.580Z,22.75
2022-12-18T15:51:44.864Z,27.75
2022-12-18T15:54:15.865Z,30.75
2022-12-18T15:56:44.962Z,34.00
2022-12-18T15:59:15.626Z,30.00
2022-12-18T16:01:46.140Z,26.75
2022-12-18T16:04:17.205Z,23.50
2022-12-18T16:07:13.193Z,21.50
2022-12-18T16:09:31.344Z,18.00
2022-12-18T16:11:58.748Z,24.33
2022-12-18T16:14:28.817Z,27.50
2022-12-18T16:16:58.561Z,26.00
2022-12-18T16:19:28.026Z,26.50
2022-12-18T16:21:58.545Z,25.75
2022-12-18T16:24:29.443Z,24.25
2022-12-18T16:27:00.111Z,25.00
2022-12-18T16:29:29.566Z,20.00
2022-12-18T16:31:56.925Z,23.00
2022-12-18T16:34:28.733Z,21.75
2022-12-18T16:37:01.695Z,22.50
2022-12-18T16:39:32.267Z,21.75
2022-12-18T16:41:59.136Z,18.75
2022-12-18T16:44:27.685Z,25.00
2022-12-18T16:46:54.556Z,26.00
2022-12-18T16:49:22.038Z,25.00
2022-12-18T16:51:50.166Z,26.00
2022-12-18T16:54:20.033Z,24.00
2022-12-18T16:56:47.388Z,21.75
2022-12-18T16:59:14.161Z,22.50
2022-12-18T17:01:41.513Z,23.50
2022-12-18T17:04:09.662Z,25.00
2022-12-18T17:06:41.791Z,21.25
2022-12-18T17:09:14.621Z,20.75
2022-12-18T17:11:41.800Z,23.75
2022-12-18T17:14:11.074Z,23.50
2022-12-18T17:16:37.966Z,27.75
2022-12-18T17:19:09.776Z,24.50
2022-12-18T17:21:40.473Z,21.25
2022-12-18T17:24:07.994Z,26.00
2022-12-18T17:26:37.529Z,27.00
2022-12-18T17:29:04.413Z,27.50
2022-12-18T17:31:32.613Z,25.00
2022-12-18T17:34:02.438Z,21.50
2022-12-18T17:36:31.709Z,27.50
2022-12-18T17:39:11.041Z,26.50
2022-12-18T17:41:44.465Z,27.25
2022-12-18T17:44:11.423Z,23.00
2022-12-18T17:46:38.274Z,27.00
2022-12-18T17:49:07.499Z,22.75
2022-12-18T17:55:20.845Z,25.00
2022-12-18T17:57:51.982Z,23.75
2022-12-18T18:00:39.486Z,25.25
2022-12-18T18:12:21.763Z,32.00
2022-12-18T18:22:23.049Z,28.25
2022-12-18T18:25:31.325Z,28.25
2022-12-18T18:27:58.376Z,23.50
2022-12-18T18:30:33.407Z,25.25
2022-12-18T18:33:02.214Z,28.00
2022-12-18T18:35:52.809Z,28.00
2022-12-18T18:38:16.517Z,28.75
2022-12-18T18:40:43.380Z,23.25
2022-12-18T18:43:10.514Z,24.25
2022-12-18T18:45:38.802Z,23.50
2022-12-18T18:48:12.636Z,24.00
2022-12-18T18:50:43.551Z,25.00
2022-12-18T18:53:10.374Z,34.00
2022-12-18T18:55:37.235Z,28.00
2022-12-18T18:58:04.262Z,28.75
2022-12-18T19:00:32.888Z,23.75
2022-12-18T19:03:01.385Z,24.00
2022-12-18T19:05:31.105Z,27.25
2022-12-18T19:07:58.022Z,28.25
2022-12-18T19:10:25.119Z,25.25
2022-12-18T19:12:52.145Z,25.00
2022-12-18T19:15:19.193Z,28.00
2022-12-18T19:17:47.430Z,25.00
2022-12-18T19:20:21.581Z,24.50
2022-12-18T19:22:55.111Z,24.25
2022-12-18T19:25:29.928Z,24.00
2022-12-18T19:28:06.974Z,23.00
2022-12-18T19:30:39.108Z,22.25
2022-12-18T19:33:26.781Z,23.00
2022-12-18T19:35:54.642Z,22.00
2022-12-18T19:38:21.812Z,21.00
2022-12-18T19:40:53.155Z,22.75
2022-12-18T19:43:20.190Z,24.00
2022-12-18T19:45:54.935Z,23.75
2022-12-18T19:48:21.852Z,21.25
2022-12-18T19:50:48.848Z,24.00
2022-12-18T19:53:17.137Z,21.00
2022-12-18T19:55:45.861Z,21.25
2022-12-18T19:58:15.304Z,23.00
2022-12-18T20:00:42.426Z,22.00
2022-12-18T20:03:25.964Z,24.00
2022-12-18T20:06:13.641Z,24.00
2022-12-18T20:08:42.458Z,23.75
2022-12-18T20:11:10.616Z,19.75
2022-12-18T20:13:40.567Z,19.00
2022-12-18T20:16:09.298Z,24.75
2022-12-18T20:18:37.108Z,22.00
2022-12-18T20:21:13.841Z,25.00
2022-12-18T20:23:57.778Z,25.00
2022-12-18T20:26:25.043Z,27.25
2022-12-18T20:29:22.419Z,21.00
2022-12-18T20:32:07.640Z,21.75
2022-12-18T20:34:50.818Z,21.33
2022-12-18T20:37:21.431Z,21.33
2022-12-18T20:40:42.242Z,24.33
2022-12-18T20:43:10.336Z,21.00
2022-12-18T20:45:39.348Z,33.75
2022-12-18T20:48:08.421Z,25.00
2022-12-18T20:50:35.804Z,21.33
2022-12-18T20:53:02.769Z,24.00
2022-12-18T20:55:31.013Z,25.00
2022-12-18T20:57:58.371Z,24.33
2022-12-18T21:00:25.313Z,23.67
2022-12-18T21:02:52.406Z,21.67
2022-12-18T21:05:24.145Z,24.33
2022-12-18T21:07:53.959Z,26.00
2022-12-18T21:10:40.439Z,24.33
2022-12-18T21:13:11.665Z,20.00
2022-12-18T21:21:26.897Z,25.75
2022-12-18T21:24:04.223Z,20.00
2022-12-18T21:26:31.603Z,26.33
2022-12-18T21:29:03.185Z,16.00
2022-12-18T21:31:38.480Z,21.67
2022-12-18T21:34:07.081Z,21.00
2022-12-18T21:36:35.138Z,21.00
2022-12-18T21:39:02.422Z,19.33
2022-12-18T21:41:29.363Z,19.00
2022-12-18T21:43:56.299Z,19.33
2022-12-18T21:46:24.590Z,27.25
2022-12-18T21:48:51.493Z,25.00
2022-12-18T21:51:18.380Z,24.75
2022-12-18T21:53:45.258Z,27.00
2022-12-18T21:56:15.071Z,20.00
2022-12-18T21:58:56.769Z,21.33
2022-12-18T22:01:26.078Z,21.00
2022-12-18T22:04:03.706Z,24.00
2022-12-18T22:06:30.507Z,20.33
2022-12-18T22:08:57.565Z,24.00
2022-12-18T22:11:24.743Z,21.67
2022-12-18T22:13:53.473Z,17.67
2022-12-18T22:16:20.628Z,22.00
2022-12-18T22:18:48.984Z,17.67
2022-12-18T22:21:29.027Z,21.00
2022-12-18T22:23:59.776Z,19.33
2022-12-18T22:26:33.825Z,21.00
2022-12-18T22:29:05.096Z,23.33
2022-12-18T22:31:31.976Z,20.67
2022-12-18T22:34:00.975Z,21.33
2022-12-18T22:36:55.858Z,16.33
2022-12-18T22:39:25.963Z,23.50
2022-12-18T22:41:56.338Z,25.75
2022-12-18T22:44:23.254Z,21.33
2022-12-18T22:47:05.906Z,25.50
2022-12-18T22:49:36.648Z,21.67
2022-12-18T22:52:05.687Z,21.00
2022-12-18T22:54:33.421Z,21.00
2022-12-18T22:57:01.309Z,24.67
2022-12-18T22:59:28.891Z,21.67
2022-12-18T23:01:59.185Z,16.33
2022-12-18T23:04:27.380Z,24.00
2022-12-18T23:06:57.244Z,18.67
2022-12-18T23:09:23.997Z,22.00
2022-12-18T23:11:51.352Z,23.00
2022-12-18T23:14:18.173Z,23.67
2022-12-18T23:16:45.242Z,21.67
2022-12-18T23:19:14.171Z,24.00
2022-12-18T23:21:41.102Z,24.00
2022-12-18T23:24:10.334Z,21.67
2022-12-18T23:26:37.434Z,24.00
2022-12-18T23:29:05.713Z,24.00
2022-12-18T23:31:35.531Z,19.00
2022-12-18T23:34:04.149Z,19.67
2022-12-18T23:36:35.834Z,24.00
2022-12-18T23:39:28.071Z,19.00
2022-12-18T23:41:56.271Z,20.00
2022-12-18T23:44:23.507Z,22.00
2022-12-18T23:46:50.561Z,23.33
2022-12-18T23:49:17.627Z,24.00
2022-12-18T23:51:44.908Z,24.67
2022-12-18T23:54:11.978Z,25.67
2022-12-18T23:56:40.236Z,25.67
2022-12-18T23:59:07.358Z,25.33
